sensor_id;sensor_type;location;lat;lon;timestamp;noise_LAeq;noise_LA_min;noise_LA_max;noise_LA01;noise_LA95
67398;Laerm;57728;50.448;18.824;2023-08-06T00:00:30;34.36;33.01;52.60;;
67398;Laerm;57728;50.448;18.824;2023-08-06T00:02:31;34.29;32.99;44.52;;
67398;Laerm;57728;50.448;18.824;2023-08-06T00:04:32;34.30;33.01;37.04;;
67398;Laerm;57728;50.448;18.824;2023-08-06T00:06:34;34.40;33.18;51.23;;
67398;Laerm;57728;50.448;18.824;2023-08-06T00:08:35;34.33;32.95;45.20;;
67398;Laerm;57728;50.448;18.824;2023-08-06T00:10:36;34.35;32.93;50.73;;
67398;Laerm;57728;50.448;18.824;2023-08-06T00:12:38;34.59;33.06;54.93;;
67398;Laerm;57728;50.448;18.824;2023-08-06T00:14:40;34.32;33.04;50.25;;
67398;Laerm;57728;50.448;18.824;2023-08-06T00:16:44;34.36;33.01;51.63;;
67398;Laerm;57728;50.448;18.824;2023-08-06T00:18:47;34.28;33.03;37.14;;
67398;Laerm;57728;50.448;18.824;2023-08-06T00:20:48;34.78;33.04;41.13;;
67398;Laerm;57728;50.448;18.824;2023-08-06T00:22:50;36.08;33.03;49.23;;
67398;Laerm;57728;50.448;18.824;2023-08-06T00:24:52;34.41;32.93;46.50;;
67398;Laerm;57728;50.448;18.824;2023-08-06T00:26:53;34.46;33.08;51.17;;
67398;Laerm;57728;50.448;18.824;2023-08-06T00:28:54;34.27;32.89;39.54;;
67398;Laerm;57728;50.448;18.824;2023-08-06T00:30:56;34.40;32.88;54.19;;
67398;Laerm;57728;50.448;18.824;2023-08-06T00:32:57;34.26;33.07;37.01;;
67398;Laerm;57728;50.448;18.824;2023-08-06T00:34:59;34.28;33.08;44.69;;
67398;Laerm;57728;50.448;18.824;2023-08-06T00:37:01;34.36;33.04;53.92;;
67398;Laerm;57728;50.448;18.824;2023-08-06T00:39:02;34.46;32.87;49.95;;
67398;Laerm;57728;50.448;18.824;2023-08-06T00:41:04;34.32;33.19;36.83;;
67398;Laerm;57728;50.448;18.824;2023-08-06T00:43:06;34.27;32.96;38.46;;
67398;Laerm;57728;50.448;18.824;2023-08-06T00:45:08;34.37;32.93;53.42;;
67398;Laerm;57728;50.448;18.824;2023-08-06T00:47:09;34.63;33.01;51.81;;
67398;Laerm;57728;50.448;18.824;2023-08-06T00:49:11;34.28;33.00;40.78;;
67398;Laerm;57728;50.448;18.824;2023-08-06T00:51:14;34.35;33.07;37.06;;
67398;Laerm;57728;50.448;18.824;2023-08-06T00:53:16;34.31;33.15;37.12;;
67398;Laerm;57728;50.448;18.824;2023-08-06T00:55:18;34.35;33.19;36.72;;
67398;Laerm;57728;50.448;18.824;2023-08-06T00:57:24;34.33;33.08;36.57;;
67398;Laerm;57728;50.448;18.824;2023-08-06T00:59:28;34.31;33.09;40.23;;
67398;Laerm;57728;50.448;18.824;2023-08-06T01:01:30;34.26;32.93;38.82;;
67398;Laerm;57728;50.448;18.824;2023-08-06T01:03:32;34.35;32.82;36.19;;
67398;Laerm;57728;50.448;18.824;2023-08-06T01:05:33;34.26;32.96;36.47;;
67398;Laerm;57728;50.448;18.824;2023-08-06T01:10:35;34.37;33.01;54.94;;
67398;Laerm;57728;50.448;18.824;2023-08-06T01:12:51;34.27;33.14;36.71;;
67398;Laerm;57728;50.448;18.824;2023-08-06T01:15:15;34.26;32.76;36.00;;
67398;Laerm;57728;50.448;18.824;2023-08-06T01:17:20;34.25;33.09;35.59;;
67398;Laerm;57728;50.448;18.824;2023-08-06T01:19:22;34.26;33.05;35.59;;
67398;Laerm;57728;50.448;18.824;2023-08-06T01:21:24;36.13;32.85;45.94;;
67398;Laerm;57728;50.448;18.824;2023-08-06T01:23:25;34.35;33.19;37.80;;
67398;Laerm;57728;50.448;18.824;2023-08-06T01:25:41;34.25;32.92;35.80;;
67398;Laerm;57728;50.448;18.824;2023-08-06T01:28:05;34.23;32.91;36.03;;
67398;Laerm;57728;50.448;18.824;2023-08-06T01:30:29;34.26;33.11;37.67;;
67398;Laerm;57728;50.448;18.824;2023-08-06T01:32:35;34.22;32.90;35.50;;
67398;Laerm;57728;50.448;18.824;2023-08-06T01:34:44;34.23;32.83;36.35;;
67398;Laerm;57728;50.448;18.824;2023-08-06T01:36:46;34.23;32.91;36.07;;
67398;Laerm;57728;50.448;18.824;2023-08-06T01:38:51;34.26;32.94;45.68;;
67398;Laerm;57728;50.448;18.824;2023-08-06T01:40:53;34.22;33.08;35.36;;
67398;Laerm;57728;50.448;18.824;2023-08-06T01:42:54;34.24;32.92;36.46;;
67398;Laerm;57728;50.448;18.824;2023-08-06T01:44:56;34.39;32.67;40.13;;
67398;Laerm;57728;50.448;18.824;2023-08-06T01:46:57;34.22;33.00;35.37;;
67398;Laerm;57728;50.448;18.824;2023-08-06T01:48:58;34.23;32.99;35.57;;
67398;Laerm;57728;50.448;18.824;2023-08-06T01:51:04;34.26;33.02;45.89;;
67398;Laerm;57728;50.448;18.824;2023-08-06T01:53:06;34.25;32.68;35.46;;
67398;Laerm;57728;50.448;18.824;2023-08-06T01:55:07;34.43;32.97;56.46;;
67398;Laerm;57728;50.448;18.824;2023-08-06T01:57:10;34.23;32.97;35.42;;
67398;Laerm;57728;50.448;18.824;2023-08-06T01:59:11;34.22;32.98;37.15;;
67398;Laerm;57728;50.448;18.824;2023-08-06T02:01:12;34.33;33.11;41.62;;
67398;Laerm;57728;50.448;18.824;2023-08-06T02:03:14;34.79;33.18;45.81;;
67398;Laerm;57728;50.448;18.824;2023-08-06T02:05:15;34.21;33.08;39.59;;
67398;Laerm;57728;50.448;18.824;2023-08-06T02:07:16;34.32;32.96;52.95;;
67398;Laerm;57728;50.448;18.824;2023-08-06T02:09:18;34.22;32.98;37.90;;
67398;Laerm;57728;50.448;18.824;2023-08-06T02:11:19;34.22;32.97;37.96;;
67398;Laerm;57728;50.448;18.824;2023-08-06T02:13:20;35.86;32.93;43.43;;
67398;Laerm;57728;50.448;18.824;2023-08-06T02:15:23;34.23;33.04;35.42;;
67398;Laerm;57728;50.448;18.824;2023-08-06T02:17:24;34.23;33.09;35.90;;
67398;Laerm;57728;50.448;18.824;2023-08-06T02:19:25;34.23;32.99;35.37;;
67398;Laerm;57728;50.448;18.824;2023-08-06T02:21:27;34.21;33.08;35.67;;
67398;Laerm;57728;50.448;18.824;2023-08-06T02:23:29;35.02;33.09;41.79;;
67398;Laerm;57728;50.448;18.824;2023-08-06T02:25:30;34.61;33.09;46.65;;
67398;Laerm;57728;50.448;18.824;2023-08-06T02:27:32;34.22;32.90;36.18;;
67398;Laerm;57728;50.448;18.824;2023-08-06T02:29:33;34.23;32.78;37.56;;
67398;Laerm;57728;50.448;18.824;2023-08-06T02:31:34;34.49;32.90;37.74;;
67398;Laerm;57728;50.448;18.824;2023-08-06T02:33:38;34.23;33.01;35.38;;
67398;Laerm;57728;50.448;18.824;2023-08-06T02:35:39;34.23;33.04;42.33;;
67398;Laerm;57728;50.448;18.824;2023-08-06T02:37:40;34.22;32.80;35.65;;
67398;Laerm;57728;50.448;18.824;2023-08-06T02:39:42;34.40;32.85;43.24;;
67398;Laerm;57728;50.448;18.824;2023-08-06T02:41:44;34.42;32.95;40.78;;
67398;Laerm;57728;50.448;18.824;2023-08-06T02:43:45;34.23;33.05;38.26;;
67398;Laerm;57728;50.448;18.824;2023-08-06T02:45:47;34.28;33.05;44.33;;
67398;Laerm;57728;50.448;18.824;2023-08-06T02:47:48;35.29;32.96;44.87;;
67398;Laerm;57728;50.448;18.824;2023-08-06T02:49:49;37.82;33.15;50.16;;
67398;Laerm;57728;50.448;18.824;2023-08-06T02:51:52;34.21;33.00;35.33;;
67398;Laerm;57728;50.448;18.824;2023-08-06T02:53:53;34.21;32.82;35.72;;
67398;Laerm;57728;50.448;18.824;2023-08-06T02:55:56;34.54;33.02;38.75;;
67398;Laerm;57728;50.448;18.824;2023-08-06T02:58:03;34.21;33.06;39.72;;
67398;Laerm;57728;50.448;18.824;2023-08-06T03:00:09;34.23;33.08;35.52;;
67398;Laerm;57728;50.448;18.824;2023-08-06T03:02:15;34.23;33.01;35.37;;
67398;Laerm;57728;50.448;18.824;2023-08-06T03:04:29;34.22;32.99;35.52;;
67398;Laerm;57728;50.448;18.824;2023-08-06T03:06:31;34.21;33.04;35.26;;
67398;Laerm;57728;50.448;18.824;2023-08-06T03:08:34;34.22;32.84;36.11;;
67398;Laerm;57728;50.448;18.824;2023-08-06T03:10:36;34.22;33.03;35.45;;
67398;Laerm;57728;50.448;18.824;2023-08-06T03:12:39;34.22;32.80;35.61;;
67398;Laerm;57728;50.448;18.824;2023-08-06T03:14:41;34.24;32.92;37.39;;
67398;Laerm;57728;50.448;18.824;2023-08-06T03:16:43;34.27;32.96;38.14;;
67398;Laerm;57728;50.448;18.824;2023-08-06T03:18:46;34.27;32.79;39.96;;
67398;Laerm;57728;50.448;18.824;2023-08-06T03:20:47;34.33;32.92;52.30;;
67398;Laerm;57728;50.448;18.824;2023-08-06T03:22:49;34.22;32.79;37.34;;
67398;Laerm;57728;50.448;18.824;2023-08-06T03:24:51;34.22;33.02;36.03;;
67398;Laerm;57728;50.448;18.824;2023-08-06T03:26:54;34.22;32.79;35.64;;
67398;Laerm;57728;50.448;18.824;2023-08-06T03:28:56;34.27;33.02;37.25;;
67398;Laerm;57728;50.448;18.824;2023-08-06T03:31:02;34.29;33.01;43.42;;
67398;Laerm;57728;50.448;18.824;2023-08-06T03:33:10;34.39;33.10;44.43;;
67398;Laerm;57728;50.448;18.824;2023-08-06T03:35:12;34.31;32.97;41.24;;
67398;Laerm;57728;50.448;18.824;2023-08-06T03:37:13;34.56;33.00;53.00;;
67398;Laerm;57728;50.448;18.824;2023-08-06T03:39:14;34.27;33.04;37.29;;
67398;Laerm;57728;50.448;18.824;2023-08-06T03:41:18;34.28;33.22;35.78;;
67398;Laerm;57728;50.448;18.824;2023-08-06T03:43:20;34.29;32.94;38.79;;
67398;Laerm;57728;50.448;18.824;2023-08-06T03:45:21;34.29;32.81;36.97;;
67398;Laerm;57728;50.448;18.824;2023-08-06T03:47:23;34.32;33.02;43.81;;
67398;Laerm;57728;50.448;18.824;2023-08-06T03:49:26;34.28;32.92;38.24;;
67398;Laerm;57728;50.448;18.824;2023-08-06T03:51:28;34.29;33.12;35.82;;
67398;Laerm;57728;50.448;18.824;2023-08-06T03:53:31;34.25;32.97;42.69;;
67398;Laerm;57728;50.448;18.824;2023-08-06T03:55:33;35.95;33.02;45.78;;
67398;Laerm;57728;50.448;18.824;2023-08-06T03:57:34;34.29;32.87;37.07;;
67398;Laerm;57728;50.448;18.824;2023-08-06T03:59:36;34.42;33.01;47.74;;
67398;Laerm;57728;50.448;18.824;2023-08-06T04:01:37;34.49;32.96;48.92;;
67398;Laerm;57728;50.448;18.824;2023-08-06T04:03:38;34.34;33.04;40.60;;
67398;Laerm;57728;50.448;18.824;2023-08-06T04:05:41;34.32;33.02;40.88;;
67398;Laerm;57728;50.448;18.824;2023-08-06T04:07:42;34.58;33.01;50.11;;
67398;Laerm;57728;50.448;18.824;2023-08-06T04:10:01;34.30;33.06;46.61;;
67398;Laerm;57728;50.448;18.824;2023-08-06T04:12:04;34.31;32.97;41.24;;
67398;Laerm;57728;50.448;18.824;2023-08-06T04:14:05;35.60;33.17;45.34;;
67398;Laerm;57728;50.448;18.824;2023-08-06T04:16:06;34.53;32.79;46.37;;
67398;Laerm;57728;50.448;18.824;2023-08-06T04:18:08;34.35;32.90;41.84;;
67398;Laerm;57728;50.448;18.824;2023-08-06T04:20:10;34.37;32.85;44.65;;
67398;Laerm;57728;50.448;18.824;2023-08-06T04:22:12;34.46;32.90;44.67;;
67398;Laerm;57728;50.448;18.824;2023-08-06T04:24:13;34.30;33.07;36.43;;
67398;Laerm;57728;50.448;18.824;2023-08-06T04:26:15;34.34;33.09;44.29;;
67398;Laerm;57728;50.448;18.824;2023-08-06T04:28:16;34.25;32.79;36.12;;
67398;Laerm;57728;50.448;18.824;2023-08-06T04:30:18;34.59;33.03;38.43;;
67398;Laerm;57728;50.448;18.824;2023-08-06T04:32:19;34.73;32.98;46.20;;
67398;Laerm;57728;50.448;18.824;2023-08-06T04:34:24;35.53;32.94;43.19;;
67398;Laerm;57728;50.448;18.824;2023-08-06T04:36:27;35.81;32.96;44.98;;
67398;Laerm;57728;50.448;18.824;2023-08-06T04:38:28;34.42;32.93;43.93;;
67398;Laerm;57728;50.448;18.824;2023-08-06T04:40:34;34.49;33.01;46.53;;
67398;Laerm;57728;50.448;18.824;2023-08-06T04:42:36;34.29;32.86;39.24;;
67398;Laerm;57728;50.448;18.824;2023-08-06T04:44:37;34.38;32.93;41.70;;
67398;Laerm;57728;50.448;18.824;2023-08-06T04:46:40;34.35;32.97;44.04;;
67398;Laerm;57728;50.448;18.824;2023-08-06T04:48:41;34.26;32.89;36.14;;
67398;Laerm;57728;50.448;18.824;2023-08-06T04:50:48;34.34;33.03;43.99;;
67398;Laerm;57728;50.448;18.824;2023-08-06T04:52:49;34.27;32.99;37.67;;
67398;Laerm;57728;50.448;18.824;2023-08-06T04:54:51;34.35;33.06;38.43;;
67398;Laerm;57728;50.448;18.824;2023-08-06T04:56:52;34.34;33.12;40.57;;
67398;Laerm;57728;50.448;18.824;2023-08-06T04:58:53;35.17;33.41;52.27;;
67398;Laerm;57728;50.448;18.824;2023-08-06T05:00:55;34.60;33.21;39.12;;
67398;Laerm;57728;50.448;18.824;2023-08-06T05:02:56;34.92;33.12;60.83;;
67398;Laerm;57728;50.448;18.824;2023-08-06T05:04:58;34.32;32.79;41.44;;
67398;Laerm;57728;50.448;18.824;2023-08-06T05:07:00;34.42;33.00;50.09;;
67398;Laerm;57728;50.448;18.824;2023-08-06T05:09:01;34.29;32.86;40.21;;
67398;Laerm;57728;50.448;18.824;2023-08-06T05:11:02;34.48;32.93;44.36;;
67398;Laerm;57728;50.448;18.824;2023-08-06T05:13:04;34.44;33.07;51.62;;
67398;Laerm;57728;50.448;18.824;2023-08-06T05:15:06;36.02;32.88;66.09;;
67398;Laerm;57728;50.448;18.824;2023-08-06T05:17:07;34.39;33.10;50.45;;
67398;Laerm;57728;50.448;18.824;2023-08-06T05:19:09;34.50;32.98;52.08;;
67398;Laerm;57728;50.448;18.824;2023-08-06T05:21:10;34.38;32.86;38.08;;
67398;Laerm;57728;50.448;18.824;2023-08-06T05:23:12;34.34;32.68;40.78;;
67398;Laerm;57728;50.448;18.824;2023-08-06T05:25:14;34.35;33.11;43.57;;
67398;Laerm;57728;50.448;18.824;2023-08-06T05:27:15;34.38;33.09;42.25;;
67398;Laerm;57728;50.448;18.824;2023-08-06T05:29:17;34.40;33.01;50.75;;
67398;Laerm;57728;50.448;18.824;2023-08-06T05:31:19;34.39;32.82;38.81;;
67398;Laerm;57728;50.448;18.824;2023-08-06T05:33:20;34.51;33.02;53.27;;
67398;Laerm;57728;50.448;18.824;2023-08-06T05:35:22;34.38;32.90;43.29;;
67398;Laerm;57728;50.448;18.824;2023-08-06T05:37:24;34.39;33.10;49.33;;
67398;Laerm;57728;50.448;18.824;2023-08-06T05:39:25;34.34;33.09;37.44;;
67398;Laerm;57728;50.448;18.824;2023-08-06T05:41:26;34.33;32.77;43.01;;
67398;Laerm;57728;50.448;18.824;2023-08-06T05:43:28;34.32;33.02;45.38;;
67398;Laerm;57728;50.448;18.824;2023-08-06T05:45:29;34.33;33.04;41.86;;
67398;Laerm;57728;50.448;18.824;2023-08-06T05:47:30;34.24;32.91;40.85;;
67398;Laerm;57728;50.448;18.824;2023-08-06T05:49:32;34.30;33.10;40.54;;
67398;Laerm;57728;50.448;18.824;2023-08-06T05:51:33;34.27;32.88;39.64;;
67398;Laerm;57728;50.448;18.824;2023-08-06T05:53:34;34.29;32.82;38.09;;
67398;Laerm;57728;50.448;18.824;2023-08-06T05:55:36;34.38;33.00;39.93;;
67398;Laerm;57728;50.448;18.824;2023-08-06T05:57:37;34.55;33.12;52.46;;
67398;Laerm;57728;50.448;18.824;2023-08-06T05:59:41;34.51;32.96;52.08;;
67398;Laerm;57728;50.448;18.824;2023-08-06T06:01:43;34.35;33.21;40.93;;
67398;Laerm;57728;50.448;18.824;2023-08-06T06:03:44;34.23;32.95;38.81;;
67398;Laerm;57728;50.448;18.824;2023-08-06T06:05:45;34.33;33.04;39.22;;
67398;Laerm;57728;50.448;18.824;2023-08-06T06:07:47;34.48;33.13;43.19;;
67398;Laerm;57728;50.448;18.824;2023-08-06T06:09:48;34.23;32.76;40.71;;
67398;Laerm;57728;50.448;18.824;2023-08-06T06:11:49;34.30;32.96;42.42;;
67398;Laerm;57728;50.448;18.824;2023-08-06T06:13:52;34.59;33.01;50.53;;
67398;Laerm;57728;50.448;18.824;2023-08-06T06:15:56;34.33;33.08;36.77;;
67398;Laerm;57728;50.448;18.824;2023-08-06T06:17:57;34.45;33.00;38.08;;
67398;Laerm;57728;50.448;18.824;2023-08-06T06:19:59;34.32;33.06;38.59;;
67398;Laerm;57728;50.448;18.824;2023-08-06T06:22:00;34.63;32.90;48.28;;
67398;Laerm;57728;50.448;18.824;2023-08-06T06:24:02;34.46;32.86;43.41;;
67398;Laerm;57728;50.448;18.824;2023-08-06T06:26:04;34.34;33.05;46.44;;
67398;Laerm;57728;50.448;18.824;2023-08-06T06:28:05;34.23;32.99;36.85;;
67398;Laerm;57728;50.448;18.824;2023-08-06T06:30:07;34.78;32.94;43.81;;
67398;Laerm;57728;50.448;18.824;2023-08-06T06:32:09;39.26;33.43;48.07;;
67398;Laerm;57728;50.448;18.824;2023-08-06T06:34:10;34.32;33.06;40.16;;
67398;Laerm;57728;50.448;18.824;2023-08-06T06:36:11;34.54;33.02;48.02;;
67398;Laerm;57728;50.448;18.824;2023-08-06T06:38:14;34.24;32.97;38.82;;
67398;Laerm;57728;50.448;18.824;2023-08-06T06:40:15;34.41;32.77;43.69;;
67398;Laerm;57728;50.448;18.824;2023-08-06T06:42:16;34.28;33.06;40.59;;
67398;Laerm;57728;50.448;18.824;2023-08-06T06:44:22;34.37;33.01;38.88;;
67398;Laerm;57728;50.448;18.824;2023-08-06T06:46:23;34.51;33.11;52.19;;
67398;Laerm;57728;50.448;18.824;2023-08-06T06:48:31;34.73;32.49;45.07;;
67398;Laerm;57728;50.448;18.824;2023-08-06T06:50:35;34.91;33.04;42.83;;
67398;Laerm;57728;50.448;18.824;2023-08-06T06:52:37;36.97;34.85;58.76;;
67398;Laerm;57728;50.448;18.824;2023-08-06T06:54:38;42.56;35.03;68.14;;
67398;Laerm;57728;50.448;18.824;2023-08-06T06:56:41;46.98;38.48;73.41;;
67398;Laerm;57728;50.448;18.824;2023-08-06T06:58:42;48.61;37.82;79.38;;
67398;Laerm;57728;50.448;18.824;2023-08-06T07:00:43;50.76;41.26;78.06;;
67398;Laerm;57728;50.448;18.824;2023-08-06T07:02:45;43.59;36.54;71.97;;
67398;Laerm;57728;50.448;18.824;2023-08-06T07:04:46;43.43;35.85;71.54;;
67398;Laerm;57728;50.448;18.824;2023-08-06T07:06:47;41.37;35.34;72.18;;
67398;Laerm;57728;50.448;18.824;2023-08-06T07:08:50;44.14;35.60;75.38;;
67398;Laerm;57728;50.448;18.824;2023-08-06T07:11:04;43.64;37.05;66.68;;
67398;Laerm;57728;50.448;18.824;2023-08-06T07:13:05;48.22;40.94;74.80;;
67398;Laerm;57728;50.448;18.824;2023-08-06T07:15:07;45.73;37.78;72.81;;
67398;Laerm;57728;50.448;18.824;2023-08-06T07:17:08;44.83;38.28;71.12;;
67398;Laerm;57728;50.448;18.824;2023-08-06T07:19:10;44.05;37.71;69.85;;
67398;Laerm;57728;50.448;18.824;2023-08-06T07:21:11;41.54;36.99;65.69;;
67398;Laerm;57728;50.448;18.824;2023-08-06T07:23:13;42.86;37.68;63.76;;
67398;Laerm;57728;50.448;18.824;2023-08-06T07:25:14;42.13;36.69;68.86;;
67398;Laerm;57728;50.448;18.824;2023-08-06T07:27:16;41.03;37.19;57.69;;
67398;Laerm;57728;50.448;18.824;2023-08-06T07:29:17;45.01;37.88;75.95;;
67398;Laerm;57728;50.448;18.824;2023-08-06T07:31:21;45.49;38.98;74.38;;
67398;Laerm;57728;50.448;18.824;2023-08-06T07:33:23;43.94;36.90;72.84;;
67398;Laerm;57728;50.448;18.824;2023-08-06T07:35:24;41.04;35.32;67.91;;
67398;Laerm;57728;50.448;18.824;2023-08-06T07:37:29;41.10;34.21;71.58;;
67398;Laerm;57728;50.448;18.824;2023-08-06T07:39:31;37.66;33.91;57.90;;
67398;Laerm;57728;50.448;18.824;2023-08-06T07:41:32;37.19;33.87;61.79;;
67398;Laerm;57728;50.448;18.824;2023-08-06T07:43:34;37.58;33.79;64.27;;
67398;Laerm;57728;50.448;18.824;2023-08-06T07:45:38;39.67;34.24;61.09;;
67398;Laerm;57728;50.448;18.824;2023-08-06T07:47:40;40.01;35.75;61.63;;
67398;Laerm;57728;50.448;18.824;2023-08-06T07:49:41;43.04;36.47;71.57;;
67398;Laerm;57728;50.448;18.824;2023-08-06T07:51:44;42.52;37.89;68.07;;
67398;Laerm;57728;50.448;18.824;2023-08-06T07:53:45;43.87;38.10;71.16;;
67398;Laerm;57728;50.448;18.824;2023-08-06T07:55:54;43.85;38.29;68.24;;
67398;Laerm;57728;50.448;18.824;2023-08-06T07:57:55;45.74;39.87;66.98;;
67398;Laerm;57728;50.448;18.824;2023-08-06T07:59:57;47.40;40.47;75.20;;
67398;Laerm;57728;50.448;18.824;2023-08-06T08:01:58;48.30;42.87;74.19;;
67398;Laerm;57728;50.448;18.824;2023-08-06T08:04:00;47.64;42.05;70.35;;
67398;Laerm;57728;50.448;18.824;2023-08-06T08:06:01;49.47;44.50;71.87;;
67398;Laerm;57728;50.448;18.824;2023-08-06T08:08:02;48.83;43.90;69.61;;
67398;Laerm;57728;50.448;18.824;2023-08-06T08:10:04;49.59;42.17;76.25;;
67398;Laerm;57728;50.448;18.824;2023-08-06T08:12:06;45.91;38.96;68.65;;
67398;Laerm;57728;50.448;18.824;2023-08-06T08:14:07;42.47;38.12;60.43;;
67398;Laerm;57728;50.448;18.824;2023-08-06T08:16:09;45.87;38.97;78.10;;
67398;Laerm;57728;50.448;18.824;2023-08-06T08:18:11;42.76;37.31;69.29;;
67398;Laerm;57728;50.448;18.824;2023-08-06T08:20:12;41.86;36.23;71.43;;
67398;Laerm;57728;50.448;18.824;2023-08-06T08:22:13;40.01;35.96;58.20;;
67398;Laerm;57728;50.448;18.824;2023-08-06T08:24:15;44.19;39.14;61.08;;
67398;Laerm;57728;50.448;18.824;2023-08-06T08:26:16;45.87;39.47;73.67;;
67398;Laerm;57728;50.448;18.824;2023-08-06T08:28:19;46.49;40.05;76.19;;
67398;Laerm;57728;50.448;18.824;2023-08-06T08:30:20;45.85;38.95;69.04;;
67398;Laerm;57728;50.448;18.824;2023-08-06T08:32:22;43.97;38.09;68.51;;
67398;Laerm;57728;50.448;18.824;2023-08-06T08:34:23;40.99;37.66;60.19;;
67398;Laerm;57728;50.448;18.824;2023-08-06T08:36:24;42.07;36.69;69.23;;
67398;Laerm;57728;50.448;18.824;2023-08-06T08:38:26;44.40;37.55;67.97;;
67398;Laerm;57728;50.448;18.824;2023-08-06T08:40:32;42.68;36.49;73.27;;
67398;Laerm;57728;50.448;18.824;2023-08-06T08:42:35;43.41;38.86;71.87;;
67398;Laerm;57728;50.448;18.824;2023-08-06T08:44:36;42.37;39.03;62.90;;
67398;Laerm;57728;50.448;18.824;2023-08-06T08:46:43;42.90;37.48;63.16;;
67398;Laerm;57728;50.448;18.824;2023-08-06T08:48:46;41.71;36.77;70.08;;
67398;Laerm;57728;50.448;18.824;2023-08-06T08:50:50;39.53;35.67;62.76;;
67398;Laerm;57728;50.448;18.824;2023-08-06T08:52:52;51.51;35.14;83.15;;
67398;Laerm;57728;50.448;18.824;2023-08-06T08:54:54;38.13;34.62;58.34;;
67398;Laerm;57728;50.448;18.824;2023-08-06T08:56:56;38.51;34.43;66.63;;
67398;Laerm;57728;50.448;18.824;2023-08-06T08:58:58;38.14;34.49;50.66;;
67398;Laerm;57728;50.448;18.824;2023-08-06T09:01:01;36.82;34.09;49.78;;
67398;Laerm;57728;50.448;18.824;2023-08-06T09:03:06;37.40;34.20;59.39;;
67398;Laerm;57728;50.448;18.824;2023-08-06T09:05:10;40.25;34.27;63.84;;
67398;Laerm;57728;50.448;18.824;2023-08-06T09:07:18;38.52;34.05;58.83;;
67398;Laerm;57728;50.448;18.824;2023-08-06T09:09:29;38.41;34.32;53.60;;
67398;Laerm;57728;50.448;18.824;2023-08-06T09:11:39;41.83;34.10;71.43;;
67398;Laerm;57728;50.448;18.824;2023-08-06T09:13:44;39.91;34.63;63.50;;
67398;Laerm;57728;50.448;18.824;2023-08-06T09:15:45;39.27;34.89;66.81;;
67398;Laerm;57728;50.448;18.824;2023-08-06T09:17:47;42.29;35.67;73.42;;
67398;Laerm;57728;50.448;18.824;2023-08-06T09:19:48;39.35;34.58;66.42;;
67398;Laerm;57728;50.448;18.824;2023-08-06T09:21:51;39.29;34.23;68.91;;
67398;Laerm;57728;50.448;18.824;2023-08-06T09:23:54;39.16;34.04;67.51;;
67398;Laerm;57728;50.448;18.824;2023-08-06T09:25:55;37.35;33.77;54.16;;
67398;Laerm;57728;50.448;18.824;2023-08-06T09:27:56;39.03;34.21;69.69;;
67398;Laerm;57728;50.448;18.824;2023-08-06T09:29:58;36.86;33.98;49.78;;
67398;Laerm;57728;50.448;18.824;2023-08-06T09:31:59;41.16;35.45;54.42;;
67398;Laerm;57728;50.448;18.824;2023-08-06T09:34:00;35.79;33.97;49.53;;
67398;Laerm;57728;50.448;18.824;2023-08-06T09:36:10;37.18;33.92;64.84;;
67398;Laerm;57728;50.448;18.824;2023-08-06T09:38:12;35.83;34.05;44.44;;
67398;Laerm;57728;50.448;18.824;2023-08-06T09:40:33;41.43;34.27;75.20;;
67398;Laerm;57728;50.448;18.824;2023-08-06T09:42:36;40.19;35.18;58.36;;
67398;Laerm;57728;50.448;18.824;2023-08-06T09:44:40;42.82;37.35;75.05;;
67398;Laerm;57728;50.448;18.824;2023-08-06T09:46:42;39.88;37.05;56.56;;
67398;Laerm;57728;50.448;18.824;2023-08-06T09:48:47;39.13;35.27;60.75;;
67398;Laerm;57728;50.448;18.824;2023-08-06T09:50:50;39.71;34.83;61.48;;
67398;Laerm;57728;50.448;18.824;2023-08-06T09:52:53;40.28;34.89;62.61;;
67398;Laerm;57728;50.448;18.824;2023-08-06T09:54:56;38.18;34.79;57.35;;
67398;Laerm;57728;50.448;18.824;2023-08-06T09:56:58;39.28;34.85;66.81;;
67398;Laerm;57728;50.448;18.824;2023-08-06T09:59:00;38.73;34.67;61.83;;
67398;Laerm;57728;50.448;18.824;2023-08-06T10:01:02;39.21;33.67;66.82;;
67398;Laerm;57728;50.448;18.824;2023-08-06T10:03:07;38.70;34.00;57.98;;
67398;Laerm;57728;50.448;18.824;2023-08-06T10:05:09;36.59;33.80;61.20;;
67398;Laerm;57728;50.448;18.824;2023-08-06T10:07:11;35.58;33.64;49.53;;
67398;Laerm;57728;50.448;18.824;2023-08-06T10:09:14;39.21;33.83;64.16;;
67398;Laerm;57728;50.448;18.824;2023-08-06T10:11:17;41.68;34.45;62.06;;
67398;Laerm;57728;50.448;18.824;2023-08-06T10:13:22;39.18;33.87;64.79;;
67398;Laerm;57728;50.448;18.824;2023-08-06T10:15:32;37.50;33.96;55.46;;
67398;Laerm;57728;50.448;18.824;2023-08-06T10:17:36;39.72;34.05;60.72;;
67398;Laerm;57728;50.448;18.824;2023-08-06T10:19:39;36.55;34.06;56.25;;
67398;Laerm;57728;50.448;18.824;2023-08-06T10:21:41;36.64;34.13;52.66;;
67398;Laerm;57728;50.448;18.824;2023-08-06T10:23:42;40.97;34.20;61.18;;
67398;Laerm;57728;50.448;18.824;2023-08-06T10:25:53;37.09;33.72;52.60;;
67398;Laerm;57728;50.448;18.824;2023-08-06T10:27:56;36.12;33.81;50.58;;
67398;Laerm;57728;50.448;18.824;2023-08-06T10:32:49;36.95;33.74;62.12;;
67398;Laerm;57728;50.448;18.824;2023-08-06T10:34:59;36.30;33.96;52.05;;
67398;Laerm;57728;50.448;18.824;2023-08-06T10:37:01;37.93;34.09;60.10;;
67398;Laerm;57728;50.448;18.824;2023-08-06T10:39:03;36.68;34.01;56.86;;
67398;Laerm;57728;50.448;18.824;2023-08-06T10:41:05;36.58;33.77;52.01;;
67398;Laerm;57728;50.448;18.824;2023-08-06T10:43:07;39.35;33.87;66.64;;
67398;Laerm;57728;50.448;18.824;2023-08-06T10:45:17;37.03;34.05;58.38;;
67398;Laerm;57728;50.448;18.824;2023-08-06T10:47:28;36.32;33.81;58.28;;
67398;Laerm;57728;50.448;18.824;2023-08-06T10:49:29;36.79;33.92;47.70;;
67398;Laerm;57728;50.448;18.824;2023-08-06T10:51:31;36.60;34.05;58.16;;
67398;Laerm;57728;50.448;18.824;2023-08-06T10:53:32;37.86;34.49;54.10;;
67398;Laerm;57728;50.448;18.824;2023-08-06T10:55:34;37.92;34.13;66.48;;
67398;Laerm;57728;50.448;18.824;2023-08-06T10:57:36;36.81;34.12;54.98;;
67398;Laerm;57728;50.448;18.824;2023-08-06T10:59:37;36.92;34.34;58.52;;
67398;Laerm;57728;50.448;18.824;2023-08-06T11:01:38;41.89;34.82;75.30;;
67398;Laerm;57728;50.448;18.824;2023-08-06T11:03:43;39.15;35.60;56.35;;
67398;Laerm;57728;50.448;18.824;2023-08-06T11:05:51;43.09;36.03;72.82;;
67398;Laerm;57728;50.448;18.824;2023-08-06T11:07:52;41.15;36.79;64.37;;
67398;Laerm;57728;50.448;18.824;2023-08-06T11:10:04;39.97;35.87;62.41;;
67398;Laerm;57728;50.448;18.824;2023-08-06T11:12:10;40.18;36.03;62.33;;
67398;Laerm;57728;50.448;18.824;2023-08-06T11:14:15;39.96;36.20;57.64;;
67398;Laerm;57728;50.448;18.824;2023-08-06T11:16:24;39.68;36.25;58.57;;
67398;Laerm;57728;50.448;18.824;2023-08-06T11:18:25;39.06;35.84;56.55;;
67398;Laerm;57728;50.448;18.824;2023-08-06T11:20:27;40.41;36.19;64.95;;
67398;Laerm;57728;50.448;18.824;2023-08-06T11:22:30;41.57;37.25;65.37;;